Airfield :
LOGIN :

Register | Disclaimer

   EN    FR    IT 

 










Legend :    VFR   Marginal VFR   IFR   Intensive IFR   Very Intensive IFR
Visi :
Ceiling :
>= 8 km
>= 3000ft
5 to 8 km
1000 to 3000 ft
1500m to 5 km
500 to 1000 ft
800 to 1500m
200 to 500 ft
< 800m
< 200 ft
Symbols :   Thunderstorms  Fog  Heavy snow  Heavy precipitations  Wind > 20 kt
SIGMETs :     Misc.  Thunderstorms  Icing  Turbulence  Mountain Waves  Volcanic Ashes






- Airport Elevation : 63 ft
- IATA code : BZM


EHWO - Woensdrecht Airbase

CURRENT METAR :
  • 260625Z AUTO 28008KT 240V310 9999 SCT014 OVC016 04/02 Q1015 GRN

EXPIRED METARs :
  • 260555Z AUTO 29007KT 250V340 9999 SCT014 OVC016 04/02 Q1015 GRN
  • 260525Z AUTO 28013KT 230V320 9999 SCT021 BKN025 04/01 Q1015 WHT
  • 260455Z AUTO 27011KT 240V320 9999 FEW024 OVC029 04/02 Q1015 BLU
  • 260425Z AUTO 27012KT 230V310 9999 SCT019 BKN022 OVC026 04/02 Q1014 WHT
  • 260355Z AUTO 27011KT 230V310 9999 SCT017 BKN021 04/02 Q1014 WHT

TAF TAF EHWO
Valid from the 26 at 06:00 until the 26 at 18:00 UTC


260431Z 2606/2618 27012KT 9999 FEW015 SCT022
BECMG 2614/2616 22010KT



MET'MAP, your aeronautical weather chart ! - Copyright ORBIFLY December 2007 - Disclaimer

ORBIFLY MET'MAP TEAM :

Programming & Development : Alexandra Zaïnal
Concept & original design : Baudouin d'Aumeries
Assistance for programming : Marc-Olivier Méhu
Technical & hardware support : Manuel Goepfert

Contact : metmap@orbifly.com




SOURCES & CREDITS :

   NOAA